sensor_id;sensor_type;location;lat;lon;timestamp;temperature;humidity
77613;DHT22;66777;52.282;5.960;2023-07-16T00:00:15;20.30;69.00
77613;DHT22;66777;52.282;5.960;2023-07-16T00:02:43;20.30;69.30
77613;DHT22;66777;52.282;5.960;2023-07-16T00:05:09;20.30;69.60
77613;DHT22;66777;52.282;5.960;2023-07-16T00:07:35;20.20;69.70
77613;DHT22;66777;52.282;5.960;2023-07-16T00:10:00;20.10;69.70
77613;DHT22;66777;52.282;5.960;2023-07-16T00:12:26;20.10;69.60
77613;DHT22;66777;52.282;5.960;2023-07-16T00:14:51;20.10;69.40
77613;DHT22;66777;52.282;5.960;2023-07-16T00:17:18;20.00;69.30
77613;DHT22;66777;52.282;5.960;2023-07-16T00:19:44;20.00;69.20
77613;DHT22;66777;52.282;5.960;2023-07-16T00:22:09;20.00;69.10
77613;DHT22;66777;52.282;5.960;2023-07-16T00:24:35;20.00;68.90
77613;DHT22;66777;52.282;5.960;2023-07-16T00:27:00;19.90;68.50
77613;DHT22;66777;52.282;5.960;2023-07-16T00:29:26;19.80;68.40
77613;DHT22;66777;52.282;5.960;2023-07-16T00:31:51;19.80;68.20
77613;DHT22;66777;52.282;5.960;2023-07-16T00:34:17;19.80;68.00
77613;DHT22;66777;52.282;5.960;2023-07-16T00:36:43;19.90;67.80
77613;DHT22;66777;52.282;5.960;2023-07-16T00:39:08;19.90;67.50
77613;DHT22;66777;52.282;5.960;2023-07-16T00:41:35;19.90;67.20
77613;DHT22;66777;52.282;5.960;2023-07-16T00:44:00;19.90;66.60
77613;DHT22;66777;52.282;5.960;2023-07-16T00:46:26;19.90;66.00
77613;DHT22;66777;52.282;5.960;2023-07-16T00:48:52;19.80;65.50
77613;DHT22;66777;52.282;5.960;2023-07-16T00:51:18;19.80;65.00
77613;DHT22;66777;52.282;5.960;2023-07-16T00:53:45;19.70;64.10
77613;DHT22;66777;52.282;5.960;2023-07-16T00:56:11;19.80;63.70
77613;DHT22;66777;52.282;5.960;2023-07-16T00:58:38;19.80;63.50
77613;DHT22;66777;52.282;5.960;2023-07-16T01:01:03;19.90;63.30
77613;DHT22;66777;52.282;5.960;2023-07-16T01:03:29;19.90;63.00
77613;DHT22;66777;52.282;5.960;2023-07-16T01:06:14;19.90;62.50
77613;DHT22;66777;52.282;5.960;2023-07-16T01:08:46;19.80;62.20
77613;DHT22;66777;52.282;5.960;2023-07-16T01:11:12;19.70;61.90
77613;DHT22;66777;52.282;5.960;2023-07-16T01:13:39;19.70;61.80
77613;DHT22;66777;52.282;5.960;2023-07-16T01:16:06;19.70;61.50
77613;DHT22;66777;52.282;5.960;2023-07-16T01:18:31;19.70;61.30
77613;DHT22;66777;52.282;5.960;2023-07-16T01:20:57;19.70;61.20
77613;DHT22;66777;52.282;5.960;2023-07-16T01:23:50;19.70;61.00
77613;DHT22;66777;52.282;5.960;2023-07-16T01:31:52;19.40;60.50
77613;DHT22;66777;52.282;5.960;2023-07-16T01:34:20;19.40;60.50
77613;DHT22;66777;52.282;5.960;2023-07-16T01:36:46;19.40;60.50
77613;DHT22;66777;52.282;5.960;2023-07-16T01:39:13;19.40;60.60
77613;DHT22;66777;52.282;5.960;2023-07-16T01:41:39;19.40;60.50
77613;DHT22;66777;52.282;5.960;2023-07-16T01:44:05;19.50;60.50
77613;DHT22;66777;52.282;5.960;2023-07-16T01:46:32;19.40;60.50
77613;DHT22;66777;52.282;5.960;2023-07-16T01:48:57;19.30;60.70
77613;DHT22;66777;52.282;5.960;2023-07-16T01:51:23;19.20;60.80
77613;DHT22;66777;52.282;5.960;2023-07-16T01:53:49;19.30;60.90
77613;DHT22;66777;52.282;5.960;2023-07-16T01:56:14;19.30;60.90
77613;DHT22;66777;52.282;5.960;2023-07-16T01:58:40;19.30;60.80
77613;DHT22;66777;52.282;5.960;2023-07-16T02:01:05;19.20;60.80
77613;DHT22;66777;52.282;5.960;2023-07-16T02:03:31;19.20;61.00
77613;DHT22;66777;52.282;5.960;2023-07-16T02:05:56;19.30;61.00
77613;DHT22;66777;52.282;5.960;2023-07-16T02:08:22;19.30;60.90
77613;DHT22;66777;52.282;5.960;2023-07-16T02:10:48;19.20;60.90
77613;DHT22;66777;52.282;5.960;2023-07-16T02:13:14;19.10;61.00
77613;DHT22;66777;52.282;5.960;2023-07-16T02:15:39;19.10;61.10
77613;DHT22;66777;52.282;5.960;2023-07-16T02:18:06;19.10;61.20
77613;DHT22;66777;52.282;5.960;2023-07-16T02:20:31;19.20;61.30
77613;DHT22;66777;52.282;5.960;2023-07-16T02:22:57;19.20;61.30
77613;DHT22;66777;52.282;5.960;2023-07-16T02:25:23;19.30;61.20
77613;DHT22;66777;52.282;5.960;2023-07-16T02:27:48;19.20;61.40
77613;DHT22;66777;52.282;5.960;2023-07-16T02:30:15;19.20;61.40
77613;DHT22;66777;52.282;5.960;2023-07-16T02:32:40;19.10;61.50
77613;DHT22;66777;52.282;5.960;2023-07-16T02:35:07;19.10;61.60
77613;DHT22;66777;52.282;5.960;2023-07-16T02:37:32;19.20;61.80
77613;DHT22;66777;52.282;5.960;2023-07-16T02:39:58;19.20;61.80
77613;DHT22;66777;52.282;5.960;2023-07-16T02:42:24;19.10;61.70
77613;DHT22;66777;52.282;5.960;2023-07-16T02:44:50;19.10;61.90
77613;DHT22;66777;52.282;5.960;2023-07-16T02:47:16;19.10;61.90
77613;DHT22;66777;52.282;5.960;2023-07-16T02:49:41;19.10;61.80
77613;DHT22;66777;52.282;5.960;2023-07-16T02:52:07;19.00;61.90
77613;DHT22;66777;52.282;5.960;2023-07-16T02:54:34;19.00;61.90
77613;DHT22;66777;52.282;5.960;2023-07-16T02:57:00;19.00;62.00
77613;DHT22;66777;52.282;5.960;2023-07-16T02:59:26;19.00;62.10
77613;DHT22;66777;52.282;5.960;2023-07-16T03:01:52;19.00;62.10
77613;DHT22;66777;52.282;5.960;2023-07-16T03:04:17;19.00;62.20
77613;DHT22;66777;52.282;5.960;2023-07-16T03:06:43;19.00;62.20
77613;DHT22;66777;52.282;5.960;2023-07-16T03:09:08;19.00;62.20
77613;DHT22;66777;52.282;5.960;2023-07-16T03:11:34;18.90;62.30
77613;DHT22;66777;52.282;5.960;2023-07-16T03:13:59;18.90;62.20
77613;DHT22;66777;52.282;5.960;2023-07-16T03:16:25;18.90;62.30
77613;DHT22;66777;52.282;5.960;2023-07-16T03:18:51;18.80;62.50
77613;DHT22;66777;52.282;5.960;2023-07-16T03:21:16;18.80;62.70
77613;DHT22;66777;52.282;5.960;2023-07-16T03:23:42;18.70;62.60
77613;DHT22;66777;52.282;5.960;2023-07-16T03:26:07;18.70;62.80
77613;DHT22;66777;52.282;5.960;2023-07-16T03:28:33;18.60;63.00
77613;DHT22;66777;52.282;5.960;2023-07-16T03:30:59;18.70;63.00
77613;DHT22;66777;52.282;5.960;2023-07-16T03:33:24;18.60;63.00
77613;DHT22;66777;52.282;5.960;2023-07-16T03:35:50;18.60;62.90
77613;DHT22;66777;52.282;5.960;2023-07-16T03:38:15;18.60;63.10
77613;DHT22;66777;52.282;5.960;2023-07-16T03:40:47;18.60;63.00
77613;DHT22;66777;52.282;5.960;2023-07-16T03:43:14;18.60;63.20
77613;DHT22;66777;52.282;5.960;2023-07-16T03:45:39;18.60;63.20
77613;DHT22;66777;52.282;5.960;2023-07-16T03:48:05;18.60;63.10
77613;DHT22;66777;52.282;5.960;2023-07-16T03:50:31;18.60;63.10
77613;DHT22;66777;52.282;5.960;2023-07-16T03:52:56;18.50;63.10
77613;DHT22;66777;52.282;5.960;2023-07-16T03:55:22;18.60;63.10
77613;DHT22;66777;52.282;5.960;2023-07-16T03:57:47;18.60;63.10
77613;DHT22;66777;52.282;5.960;2023-07-16T04:00:13;18.60;63.00
77613;DHT22;66777;52.282;5.960;2023-07-16T04:02:39;18.60;63.00
77613;DHT22;66777;52.282;5.960;2023-07-16T04:05:05;18.50;63.30
77613;DHT22;66777;52.282;5.960;2023-07-16T04:07:31;18.40;63.50
77613;DHT22;66777;52.282;5.960;2023-07-16T04:09:56;18.40;63.70
77613;DHT22;66777;52.282;5.960;2023-07-16T04:12:22;18.40;63.90
77613;DHT22;66777;52.282;5.960;2023-07-16T04:14:47;18.40;64.00
77613;DHT22;66777;52.282;5.960;2023-07-16T04:17:13;18.40;64.20
77613;DHT22;66777;52.282;5.960;2023-07-16T04:19:39;18.50;64.30
77613;DHT22;66777;52.282;5.960;2023-07-16T04:22:05;18.50;64.20
77613;DHT22;66777;52.282;5.960;2023-07-16T04:24:31;18.40;64.40
77613;DHT22;66777;52.282;5.960;2023-07-16T04:26:58;18.40;64.40
77613;DHT22;66777;52.282;5.960;2023-07-16T04:29:24;18.30;64.60
77613;DHT22;66777;52.282;5.960;2023-07-16T04:31:49;18.40;64.60
77613;DHT22;66777;52.282;5.960;2023-07-16T04:34:15;18.50;64.60
77613;DHT22;66777;52.282;5.960;2023-07-16T04:36:42;18.40;64.50
77613;DHT22;66777;52.282;5.960;2023-07-16T04:39:08;18.40;64.40
77613;DHT22;66777;52.282;5.960;2023-07-16T04:41:33;18.40;64.50
77613;DHT22;66777;52.282;5.960;2023-07-16T04:43:59;18.40;64.50
77613;DHT22;66777;52.282;5.960;2023-07-16T04:46:25;18.50;64.30
77613;DHT22;66777;52.282;5.960;2023-07-16T04:48:50;18.40;64.30
77613;DHT22;66777;52.282;5.960;2023-07-16T04:51:16;18.40;64.20
77613;DHT22;66777;52.282;5.960;2023-07-16T04:53:41;18.30;64.20
77613;DHT22;66777;52.282;5.960;2023-07-16T04:56:13;18.40;64.30
77613;DHT22;66777;52.282;5.960;2023-07-16T04:58:39;18.40;64.30
77613;DHT22;66777;52.282;5.960;2023-07-16T05:01:05;18.40;64.20
77613;DHT22;66777;52.282;5.960;2023-07-16T05:03:31;18.50;64.10
77613;DHT22;66777;52.282;5.960;2023-07-16T05:05:56;18.50;64.00
77613;DHT22;66777;52.282;5.960;2023-07-16T05:08:22;18.60;63.90
77613;DHT22;66777;52.282;5.960;2023-07-16T05:10:47;18.60;63.80
77613;DHT22;66777;52.282;5.960;2023-07-16T05:13:13;18.60;63.70
77613;DHT22;66777;52.282;5.960;2023-07-16T05:15:40;18.60;63.70
77613;DHT22;66777;52.282;5.960;2023-07-16T05:18:06;18.60;63.60
77613;DHT22;66777;52.282;5.960;2023-07-16T05:20:31;18.60;63.70
77613;DHT22;66777;52.282;5.960;2023-07-16T05:22:57;18.60;63.70
77613;DHT22;66777;52.282;5.960;2023-07-16T05:25:22;18.60;63.60
77613;DHT22;66777;52.282;5.960;2023-07-16T05:27:48;18.60;63.60
77613;DHT22;66777;52.282;5.960;2023-07-16T05:30:14;18.60;63.70
77613;DHT22;66777;52.282;5.960;2023-07-16T05:32:40;18.70;63.70
77613;DHT22;66777;52.282;5.960;2023-07-16T05:35:05;18.60;63.70
77613;DHT22;66777;52.282;5.960;2023-07-16T05:37:31;18.70;63.60
77613;DHT22;66777;52.282;5.960;2023-07-16T05:39:57;18.60;63.60
77613;DHT22;66777;52.282;5.960;2023-07-16T05:42:22;18.70;63.60
77613;DHT22;66777;52.282;5.960;2023-07-16T05:44:48;18.70;63.50
77613;DHT22;66777;52.282;5.960;2023-07-16T05:47:13;18.70;63.50
77613;DHT22;66777;52.282;5.960;2023-07-16T05:49:39;18.70;63.50
77613;DHT22;66777;52.282;5.960;2023-07-16T05:52:05;18.80;63.30
77613;DHT22;66777;52.282;5.960;2023-07-16T05:54:31;18.80;63.20
77613;DHT22;66777;52.282;5.960;2023-07-16T05:56:57;18.80;63.20
77613;DHT22;66777;52.282;5.960;2023-07-16T05:59:22;18.80;63.10
77613;DHT22;66777;52.282;5.960;2023-07-16T06:01:48;18.80;63.10
77613;DHT22;66777;52.282;5.960;2023-07-16T06:04:14;18.80;63.00
77613;DHT22;66777;52.282;5.960;2023-07-16T06:06:40;18.80;62.90
77613;DHT22;66777;52.282;5.960;2023-07-16T06:09:05;18.80;62.80
77613;DHT22;66777;52.282;5.960;2023-07-16T06:11:31;18.80;62.70
77613;DHT22;66777;52.282;5.960;2023-07-16T06:13:56;18.90;62.50
77613;DHT22;66777;52.282;5.960;2023-07-16T06:16:22;18.90;62.30
77613;DHT22;66777;52.282;5.960;2023-07-16T06:18:48;18.90;62.20
77613;DHT22;66777;52.282;5.960;2023-07-16T06:21:13;18.90;62.10
77613;DHT22;66777;52.282;5.960;2023-07-16T06:23:39;19.00;62.10
77613;DHT22;66777;52.282;5.960;2023-07-16T06:26:05;19.00;62.10
77613;DHT22;66777;52.282;5.960;2023-07-16T06:28:31;19.10;62.10
77613;DHT22;66777;52.282;5.960;2023-07-16T06:30:57;19.20;61.60
77613;DHT22;66777;52.282;5.960;2023-07-16T06:33:23;19.20;61.50
77613;DHT22;66777;52.282;5.960;2023-07-16T06:35:48;19.30;61.40
77613;DHT22;66777;52.282;5.960;2023-07-16T06:38:14;19.30;61.20
77613;DHT22;66777;52.282;5.960;2023-07-16T06:40:46;19.30;61.10
77613;DHT22;66777;52.282;5.960;2023-07-16T06:43:12;19.40;61.10
77613;DHT22;66777;52.282;5.960;2023-07-16T06:45:38;19.50;61.10
77613;DHT22;66777;52.282;5.960;2023-07-16T06:48:04;19.60;61.00
77613;DHT22;66777;52.282;5.960;2023-07-16T06:50:29;19.70;60.70
77613;DHT22;66777;52.282;5.960;2023-07-16T06:52:55;19.70;60.70
77613;DHT22;66777;52.282;5.960;2023-07-16T06:55:21;19.90;60.60
77613;DHT22;66777;52.282;5.960;2023-07-16T06:57:46;19.90;60.60
77613;DHT22;66777;52.282;5.960;2023-07-16T07:00:12;20.00;60.20
77613;DHT22;66777;52.282;5.960;2023-07-16T07:02:38;20.10;60.20
77613;DHT22;66777;52.282;5.960;2023-07-16T07:05:03;20.30;59.90
77613;DHT22;66777;52.282;5.960;2023-07-16T07:07:30;20.30;59.60
77613;DHT22;66777;52.282;5.960;2023-07-16T07:09:55;20.30;59.70
77613;DHT22;66777;52.282;5.960;2023-07-16T07:12:21;20.30;59.80
77613;DHT22;66777;52.282;5.960;2023-07-16T07:14:48;20.40;59.80
77613;DHT22;66777;52.282;5.960;2023-07-16T07:17:14;20.40;60.00
77613;DHT22;66777;52.282;5.960;2023-07-16T07:19:41;20.50;59.60
77613;DHT22;66777;52.282;5.960;2023-07-16T07:22:06;20.50;59.60
77613;DHT22;66777;52.282;5.960;2023-07-16T07:24:32;20.50;59.70
77613;DHT22;66777;52.282;5.960;2023-07-16T07:26:57;20.50;59.50
77613;DHT22;66777;52.282;5.960;2023-07-16T07:29:23;20.50;59.40
77613;DHT22;66777;52.282;5.960;2023-07-16T07:31:50;20.70;59.00
77613;DHT22;66777;52.282;5.960;2023-07-16T07:34:15;20.70;58.90
77613;DHT22;66777;52.282;5.960;2023-07-16T07:36:41;20.80;59.00
77613;DHT22;66777;52.282;5.960;2023-07-16T07:39:07;20.80;59.10
77613;DHT22;66777;52.282;5.960;2023-07-16T07:41:33;20.80;59.10
77613;DHT22;66777;52.282;5.960;2023-07-16T07:43:58;20.90;59.10
77613;DHT22;66777;52.282;5.960;2023-07-16T07:46:24;21.10;58.30
77613;DHT22;66777;52.282;5.960;2023-07-16T07:48:50;21.30;58.00
77613;DHT22;66777;52.282;5.960;2023-07-16T07:51:15;21.20;57.80
77613;DHT22;66777;52.282;5.960;2023-07-16T07:53:41;21.10;58.00
77613;DHT22;66777;52.282;5.960;2023-07-16T07:56:07;21.10;57.90
77613;DHT22;66777;52.282;5.960;2023-07-16T07:58:33;21.10;58.00
77613;DHT22;66777;52.282;5.960;2023-07-16T08:01:08;21.00;58.00
77613;DHT22;66777;52.282;5.960;2023-07-16T08:03:34;20.90;58.10
77613;DHT22;66777;52.282;5.960;2023-07-16T08:06:00;20.90;58.20
77613;DHT22;66777;52.282;5.960;2023-07-16T08:08:25;20.80;58.20
77613;DHT22;66777;52.282;5.960;2023-07-16T08:10:51;20.80;58.40
77613;DHT22;66777;52.282;5.960;2023-07-16T08:13:17;20.80;58.30
77613;DHT22;66777;52.282;5.960;2023-07-16T08:15:42;20.80;58.30
77613;DHT22;66777;52.282;5.960;2023-07-16T08:18:08;20.90;58.50
77613;DHT22;66777;52.282;5.960;2023-07-16T08:20:36;20.80;58.40
77613;DHT22;66777;52.282;5.960;2023-07-16T08:23:01;20.80;58.20
77613;DHT22;66777;52.282;5.960;2023-07-16T08:25:27;20.70;58.50
77613;DHT22;66777;52.282;5.960;2023-07-16T08:27:53;20.70;58.70
77613;DHT22;66777;52.282;5.960;2023-07-16T08:30:18;20.70;58.80
77613;DHT22;66777;52.282;5.960;2023-07-16T08:32:44;20.70;59.00
77613;DHT22;66777;52.282;5.960;2023-07-16T08:35:10;20.70;58.90
77613;DHT22;66777;52.282;5.960;2023-07-16T08:37:43;20.70;58.90
77613;DHT22;66777;52.282;5.960;2023-07-16T08:40:10;20.70;58.90
77613;DHT22;66777;52.282;5.960;2023-07-16T08:42:40;20.70;59.10
77613;DHT22;66777;52.282;5.960;2023-07-16T08:45:15;20.70;59.10
77613;DHT22;66777;52.282;5.960;2023-07-16T08:47:44;20.60;59.00
77613;DHT22;66777;52.282;5.960;2023-07-16T08:50:10;20.60;59.00
77613;DHT22;66777;52.282;5.960;2023-07-16T08:52:37;20.70;58.90
77613;DHT22;66777;52.282;5.960;2023-07-16T08:55:04;20.80;58.70
77613;DHT22;66777;52.282;5.960;2023-07-16T08:57:31;20.80;58.70
77613;DHT22;66777;52.282;5.960;2023-07-16T08:59:57;20.80;58.70
77613;DHT22;66777;52.282;5.960;2023-07-16T09:02:23;20.80;58.80
77613;DHT22;66777;52.282;5.960;2023-07-16T09:04:49;20.80;58.90
77613;DHT22;66777;52.282;5.960;2023-07-16T09:07:16;21.00;58.90
77613;DHT22;66777;52.282;5.960;2023-07-16T09:09:42;21.10;58.70
77613;DHT22;66777;52.282;5.960;2023-07-16T09:12:16;21.20;58.70
77613;DHT22;66777;52.282;5.960;2023-07-16T09:14:42;21.20;58.70
77613;DHT22;66777;52.282;5.960;2023-07-16T09:17:08;21.10;58.70
77613;DHT22;66777;52.282;5.960;2023-07-16T09:19:33;21.10;59.00
77613;DHT22;66777;52.282;5.960;2023-07-16T09:21:59;21.10;59.00
77613;DHT22;66777;52.282;5.960;2023-07-16T09:24:25;21.00;59.20
77613;DHT22;66777;52.282;5.960;2023-07-16T09:26:54;21.00;59.40
77613;DHT22;66777;52.282;5.960;2023-07-16T09:29:25;21.00;59.40
77613;DHT22;66777;52.282;5.960;2023-07-16T09:32:02;20.90;59.60
77613;DHT22;66777;52.282;5.960;2023-07-16T09:34:29;20.90;59.80
77613;DHT22;66777;52.282;5.960;2023-07-16T09:36:56;20.80;59.90
77613;DHT22;66777;52.282;5.960;2023-07-16T09:39:22;20.80;59.80
77613;DHT22;66777;52.282;5.960;2023-07-16T09:41:49;20.70;59.80
77613;DHT22;66777;52.282;5.960;2023-07-16T09:44:16;20.80;59.80
77613;DHT22;66777;52.282;5.960;2023-07-16T09:46:42;21.10;59.60
77613;DHT22;66777;52.282;5.960;2023-07-16T09:49:08;21.50;59.10
77613;DHT22;66777;52.282;5.960;2023-07-16T09:51:36;21.80;58.60
77613;DHT22;66777;52.282;5.960;2023-07-16T09:54:02;21.90;58.60
77613;DHT22;66777;52.282;5.960;2023-07-16T09:56:49;21.90;58.60
77613;DHT22;66777;52.282;5.960;2023-07-16T09:59:18;22.10;58.80
77613;DHT22;66777;52.282;5.960;2023-07-16T10:01:45;22.10;58.40
77613;DHT22;66777;52.282;5.960;2023-07-16T10:04:15;22.00;58.00
77613;DHT22;66777;52.282;5.960;2023-07-16T10:06:55;21.90;57.90
77613;DHT22;66777;52.282;5.960;2023-07-16T10:09:41;21.80;58.00
77613;DHT22;66777;52.282;5.960;2023-07-16T10:14:40;21.70;57.90
77613;DHT22;66777;52.282;5.960;2023-07-16T10:17:06;21.80;58.00
77613;DHT22;66777;52.282;5.960;2023-07-16T10:25:10;22.20;57.30
77613;DHT22;66777;52.282;5.960;2023-07-16T10:27:37;22.10;57.40
77613;DHT22;66777;52.282;5.960;2023-07-16T10:30:04;21.90;57.40
77613;DHT22;66777;52.282;5.960;2023-07-16T10:32:31;21.80;57.60
77613;DHT22;66777;52.282;5.960;2023-07-16T10:34:57;21.70;57.90
77613;DHT22;66777;52.282;5.960;2023-07-16T10:37:24;21.70;58.00
77613;DHT22;66777;52.282;5.960;2023-07-16T10:39:54;21.60;58.10
77613;DHT22;66777;52.282;5.960;2023-07-16T10:42:22;21.60;58.30
77613;DHT22;66777;52.282;5.960;2023-07-16T10:44:52;21.60;58.40
77613;DHT22;66777;52.282;5.960;2023-07-16T10:47:24;21.50;58.50
77613;DHT22;66777;52.282;5.960;2023-07-16T10:49:51;21.50;58.50
77613;DHT22;66777;52.282;5.960;2023-07-16T10:52:21;21.50;58.50
77613;DHT22;66777;52.282;5.960;2023-07-16T10:54:47;21.50;58.50
77613;DHT22;66777;52.282;5.960;2023-07-16T10:57:15;21.50;58.50
77613;DHT22;66777;52.282;5.960;2023-07-16T10:59:42;21.50;58.50
77613;DHT22;66777;52.282;5.960;2023-07-16T11:02:13;21.50;58.50
77613;DHT22;66777;52.282;5.960;2023-07-16T11:04:39;21.60;58.50
77613;DHT22;66777;52.282;5.960;2023-07-16T11:07:06;21.60;58.60
77613;DHT22;66777;52.282;5.960;2023-07-16T11:09:33;21.60;58.60
77613;DHT22;66777;52.282;5.960;2023-07-16T11:12:07;21.70;58.60
77613;DHT22;66777;52.282;5.960;2023-07-16T11:14:33;21.60;58.60
77613;DHT22;66777;52.282;5.960;2023-07-16T11:17:06;21.50;58.70
77613;DHT22;66777;52.282;5.960;2023-07-16T11:19:34;21.50;58.70
77613;DHT22;66777;52.282;5.960;2023-07-16T11:22:01;21.40;58.90
77613;DHT22;66777;52.282;5.960;2023-07-16T11:24:27;21.40;59.10
77613;DHT22;66777;52.282;5.960;2023-07-16T11:26:54;21.40;59.20
77613;DHT22;66777;52.282;5.960;2023-07-16T11:29:24;21.40;59.10
77613;DHT22;66777;52.282;5.960;2023-07-16T11:31:52;21.50;59.10
77613;DHT22;66777;52.282;5.960;2023-07-16T11:34:21;21.50;58.90
77613;DHT22;66777;52.282;5.960;2023-07-16T11:36:49;21.60;59.00
77613;DHT22;66777;52.282;5.960;2023-07-16T11:39:15;21.70;59.10
77613;DHT22;66777;52.282;5.960;2023-07-16T11:41:41;21.70;59.00
77613;DHT22;66777;52.282;5.960;2023-07-16T11:44:10;21.70;58.80
77613;DHT22;66777;52.282;5.960;2023-07-16T11:46:36;21.70;58.90
77613;DHT22;66777;52.282;5.960;2023-07-16T11:49:02;21.70;58.90
77613;DHT22;66777;52.282;5.960;2023-07-16T11:51:29;21.70;59.00
77613;DHT22;66777;52.282;5.960;2023-07-16T11:53:55;21.70;59.10
77613;DHT22;66777;52.282;5.960;2023-07-16T11:56:21;21.80;59.10
77613;DHT22;66777;52.282;5.960;2023-07-16T11:58:48;21.90;59.10
77613;DHT22;66777;52.282;5.960;2023-07-16T12:01:14;21.90;59.00
77613;DHT22;66777;52.282;5.960;2023-07-16T12:03:40;21.90;58.70
77613;DHT22;66777;52.282;5.960;2023-07-16T12:06:06;21.80;58.60
77613;DHT22;66777;52.282;5.960;2023-07-16T12:08:31;21.70;58.60
77613;DHT22;66777;52.282;5.960;2023-07-16T12:10:57;21.70;58.50
77613;DHT22;66777;52.282;5.960;2023-07-16T12:13:23;21.60;58.70
77613;DHT22;66777;52.282;5.960;2023-07-16T12:15:48;21.50;59.10
77613;DHT22;66777;52.282;5.960;2023-07-16T12:18:14;21.50;59.40
77613;DHT22;66777;52.282;5.960;2023-07-16T12:20:40;21.50;59.70
77613;DHT22;66777;52.282;5.960;2023-07-16T12:23:05;21.50;59.80
77613;DHT22;66777;52.282;5.960;2023-07-16T12:25:31;21.40;59.90
77613;DHT22;66777;52.282;5.960;2023-07-16T12:27:56;21.40;60.30
77613;DHT22;66777;52.282;5.960;2023-07-16T12:30:23;21.40;60.50
77613;DHT22;66777;52.282;5.960;2023-07-16T12:32:50;21.40;60.40
77613;DHT22;66777;52.282;5.960;2023-07-16T12:35:15;21.40;60.60
77613;DHT22;66777;52.282;5.960;2023-07-16T12:37:41;21.40;61.00
77613;DHT22;66777;52.282;5.960;2023-07-16T12:40:07;21.40;61.50
77613;DHT22;66777;52.282;5.960;2023-07-16T12:42:33;21.50;61.70
77613;DHT22;66777;52.282;5.960;2023-07-16T12:44:59;21.70;61.90
77613;DHT22;66777;52.282;5.960;2023-07-16T12:47:24;21.90;61.70
77613;DHT22;66777;52.282;5.960;2023-07-16T12:49:50;22.10;61.60
77613;DHT22;66777;52.282;5.960;2023-07-16T12:52:16;22.30;61.20
77613;DHT22;66777;52.282;5.960;2023-07-16T12:54:41;22.50;60.90
77613;DHT22;66777;52.282;5.960;2023-07-16T12:57:07;22.70;60.70
77613;DHT22;66777;52.282;5.960;2023-07-16T12:59:32;22.80;60.30
77613;DHT22;66777;52.282;5.960;2023-07-16T13:01:58;22.90;60.00
77613;DHT22;66777;52.282;5.960;2023-07-16T13:04:23;23.10;59.70
77613;DHT22;66777;52.282;5.960;2023-07-16T13:06:50;23.20;59.70
77613;DHT22;66777;52.282;5.960;2023-07-16T13:09:16;23.20;59.70
77613;DHT22;66777;52.282;5.960;2023-07-16T13:11:42;23.30;59.10
77613;DHT22;66777;52.282;5.960;2023-07-16T13:14:08;23.20;58.90
77613;DHT22;66777;52.282;5.960;2023-07-16T13:16:33;23.20;58.80
77613;DHT22;66777;52.282;5.960;2023-07-16T13:18:59;23.20;58.90
77613;DHT22;66777;52.282;5.960;2023-07-16T13:21:24;23.40;58.20
77613;DHT22;66777;52.282;5.960;2023-07-16T13:23:50;23.60;57.40
77613;DHT22;66777;52.282;5.960;2023-07-16T13:26:16;23.50;57.30
77613;DHT22;66777;52.282;5.960;2023-07-16T13:28:41;23.50;57.10
77613;DHT22;66777;52.282;5.960;2023-07-16T13:31:07;23.40;57.10
77613;DHT22;66777;52.282;5.960;2023-07-16T13:33:32;23.30;57.10
77613;DHT22;66777;52.282;5.960;2023-07-16T13:35:58;23.30;57.10
77613;DHT22;66777;52.282;5.960;2023-07-16T13:38:26;23.20;57.00
77613;DHT22;66777;52.282;5.960;2023-07-16T13:40:52;23.30;56.60
77613;DHT22;66777;52.282;5.960;2023-07-16T13:43:18;23.30;56.10
77613;DHT22;66777;52.282;5.960;2023-07-16T13:45:43;23.40;55.60
77613;DHT22;66777;52.282;5.960;2023-07-16T13:48:09;23.40;55.30
77613;DHT22;66777;52.282;5.960;2023-07-16T13:50:34;23.40;55.40
77613;DHT22;66777;52.282;5.960;2023-07-16T13:53:00;23.50;55.40
77613;DHT22;66777;52.282;5.960;2023-07-16T13:55:27;23.50;55.40
77613;DHT22;66777;52.282;5.960;2023-07-16T13:57:53;23.60;55.30
77613;DHT22;66777;52.282;5.960;2023-07-16T14:00:21;23.60;55.10
77613;DHT22;66777;52.282;5.960;2023-07-16T14:02:46;23.50;55.30
77613;DHT22;66777;52.282;5.960;2023-07-16T14:05:12;23.50;55.40
77613;DHT22;66777;52.282;5.960;2023-07-16T14:07:38;23.50;55.70
77613;DHT22;66777;52.282;5.960;2023-07-16T14:10:04;23.50;55.60
77613;DHT22;66777;52.282;5.960;2023-07-16T14:12:29;23.50;55.60
77613;DHT22;66777;52.282;5.960;2023-07-16T14:14:55;23.50;55.80
77613;DHT22;66777;52.282;5.960;2023-07-16T14:17:20;23.50;56.00
77613;DHT22;66777;52.282;5.960;2023-07-16T14:19:46;23.60;55.80
77613;DHT22;66777;52.282;5.960;2023-07-16T14:22:12;23.60;55.50
77613;DHT22;66777;52.282;5.960;2023-07-16T14:24:38;23.60;55.30
77613;DHT22;66777;52.282;5.960;2023-07-16T14:27:06;23.60;55.20
77613;DHT22;66777;52.282;5.960;2023-07-16T14:29:32;23.60;55.30
77613;DHT22;66777;52.282;5.960;2023-07-16T14:31:58;23.50;55.20
77613;DHT22;66777;52.282;5.960;2023-07-16T14:34:25;23.50;55.10
77613;DHT22;66777;52.282;5.960;2023-07-16T14:36:51;23.50;55.30
77613;DHT22;66777;52.282;5.960;2023-07-16T14:39:16;23.50;55.30
77613;DHT22;66777;52.282;5.960;2023-07-16T14:41:42;23.50;55.50
77613;DHT22;66777;52.282;5.960;2023-07-16T14:44:07;23.60;55.30
77613;DHT22;66777;52.282;5.960;2023-07-16T14:46:33;23.60;55.20
77613;DHT22;66777;52.282;5.960;2023-07-16T14:48:59;23.60;55.00
77613;DHT22;66777;52.282;5.960;2023-07-16T14:51:25;23.60;54.40
77613;DHT22;66777;52.282;5.960;2023-07-16T14:53:51;23.60;54.10
77613;DHT22;66777;52.282;5.960;2023-07-16T14:56:18;23.50;54.00
77613;DHT22;66777;52.282;5.960;2023-07-16T14:58:44;23.40;53.90
77613;DHT22;66777;52.282;5.960;2023-07-16T15:01:10;23.30;54.00
77613;DHT22;66777;52.282;5.960;2023-07-16T15:03:36;23.20;54.20
77613;DHT22;66777;52.282;5.960;2023-07-16T15:06:03;23.10;54.30
77613;DHT22;66777;52.282;5.960;2023-07-16T15:08:28;23.00;54.60
77613;DHT22;66777;52.282;5.960;2023-07-16T15:11:00;22.90;54.80
77613;DHT22;66777;52.282;5.960;2023-07-16T15:13:25;22.90;55.00
77613;DHT22;66777;52.282;5.960;2023-07-16T15:15:53;22.90;55.20
77613;DHT22;66777;52.282;5.960;2023-07-16T15:18:20;22.80;55.30
77613;DHT22;66777;52.282;5.960;2023-07-16T15:20:46;22.80;55.40
77613;DHT22;66777;52.282;5.960;2023-07-16T15:23:12;22.80;55.10
77613;DHT22;66777;52.282;5.960;2023-07-16T15:25:41;23.00;54.70
77613;DHT22;66777;52.282;5.960;2023-07-16T15:28:08;23.10;54.40
77613;DHT22;66777;52.282;5.960;2023-07-16T15:30:33;23.30;54.20
77613;DHT22;66777;52.282;5.960;2023-07-16T15:32:59;23.40;53.90
77613;DHT22;66777;52.282;5.960;2023-07-16T15:35:24;23.50;53.50
77613;DHT22;66777;52.282;5.960;2023-07-16T15:37:50;23.60;53.00